Time,TemperatureF,DewpointF,PressureIn,WindDirection,WindDirectionDegrees,WindSpeedMPH,WindSpeedGustMPH,Humidity,HourlyPrecipIn,Conditions,Clouds,dailyrainin,SoftwareType,DateUTC
2013-06-22 00:07:00,62.9,61.0,30.17,ESE,122,0.0,0.0,92,0.00,,,0.00,weatherlink.com 1.10,2013-06-22 04:07:00,
2013-06-22 00:22:00,62.5,61.0,30.17,ESE,122,0.0,0.0,93,0.00,,,0.00,weatherlink.com 1.10,2013-06-22 04:22:00,
2013-06-22 00:37:00,62.2,61.0,30.17,ESE,122,0.0,0.0,94,0.00,,,0.00,weatherlink.com 1.10,2013-06-22 04:37:00,
2013-06-22 00:52:00,61.9,60.0,30.17,ESE,122,0.0,0.0,94,0.00,,,0.00,weatherlink.com 1.10,2013-06-22 04:52:00,
2013-06-22 01:07:00,61.6,60.0,30.17,ESE,122,0.0,0.0,95,0.00,,,0.00,weatherlink.com 1.10,2013-06-22 05:07:00,
2013-06-22 01:22:00,61.3,60.0,30.17,ESE,122,0.0,0.0,95,0.00,,,0.00,weatherlink.com 1.10,2013-06-22 05:22:00,
2013-06-22 01:37:00,61.3,60.0,30.17,ESE,122,0.0,0.0,96,0.00,,,0.00,weatherlink.com 1.10,2013-06-22 05:37:00,
2013-06-22 01:52:00,60.9,60.0,30.16,ESE,122,0.0,0.0,95,0.00,,,0.00,weatherlink.com 1.10,2013-06-22 05:52:00,
2013-06-22 02:07:00,60.5,59.0,30.16,ESE,122,0.0,0.0,95,0.00,,,0.00,weatherlink.com 1.10,2013-06-22 06:07:00,
2013-06-22 02:22:00,60.4,59.0,30.16,ESE,122,0.0,0.0,96,0.00,,,0.00,weatherlink.com 1.10,2013-06-22 06:22:00,
2013-06-22 02:37:00,60.2,59.0,30.16,ESE,122,0.0,0.0,96,0.00,,,0.00,weatherlink.com 1.10,2013-06-22 06:37:00,
2013-06-22 02:52:00,59.9,59.0,30.15,ESE,122,0.0,1.0,96,0.00,,,0.00,weatherlink.com 1.10,2013-06-22 06:52:00,
2013-06-22 03:07:00,60.0,59.0,30.16,SSE,153,0.0,1.0,97,0.00,,,0.00,weatherlink.com 1.10,2013-06-22 07:07:00,
2013-06-22 03:22:00,60.3,60.0,30.16,SSE,153,0.0,0.0,97,0.00,,,0.00,weatherlink.com 1.10,2013-06-22 07:22:00,
2013-06-22 03:37:00,60.3,60.0,30.16,SSE,153,0.0,0.0,97,0.00,,,0.00,weatherlink.com 1.10,2013-06-22 07:37:00,
2013-06-22 03:52:00,60.1,59.0,30.16,SSE,153,0.0,0.0,97,0.00,,,0.00,weatherlink.com 1.10,2013-06-22 07:52:00,
2013-06-22 04:07:00,59.9,59.0,30.17,SSE,153,0.0,0.0,97,0.00,,,0.00,weatherlink.com 1.10,2013-06-22 08:07:00,
2013-06-22 04:22:00,59.6,59.0,30.17,SSE,153,0.0,0.0,97,0.00,,,0.00,weatherlink.com 1.10,2013-06-22 08:22:00,
2013-06-22 04:37:00,59.5,59.0,30.16,SSE,153,0.0,0.0,97,0.00,,,0.00,weatherlink.com 1.10,2013-06-22 08:37:00,
2013-06-22 04:52:00,59.1,58.0,30.16,SSE,153,0.0,0.0,97,0.00,,,0.00,weatherlink.com 1.10,2013-06-22 08:52:00,
2013-06-22 05:07:00,58.8,58.0,30.16,SSE,153,0.0,0.0,97,0.00,,,0.00,weatherlink.com 1.10,2013-06-22 09:07:00,
2013-06-22 05:22:00,58.5,58.0,30.17,SSE,153,0.0,0.0,97,0.00,,,0.00,weatherlink.com 1.10,2013-06-22 09:22:00,
2013-06-22 05:37:00,58.2,57.0,30.16,SSE,153,0.0,0.0,97,0.00,,,0.00,weatherlink.com 1.10,2013-06-22 09:37:00,
2013-06-22 05:52:00,58.0,57.0,30.17,SSE,153,0.0,0.0,97,0.00,,,0.00,weatherlink.com 1.10,2013-06-22 09:52:00,
2013-06-22 06:07:00,57.8,57.0,30.17,SSE,153,0.0,0.0,97,0.00,,,0.00,weatherlink.com 1.10,2013-06-22 10:07:00,
2013-06-22 06:22:00,57.9,57.0,30.16,SSE,153,0.0,0.0,98,0.00,,,0.00,weatherlink.com 1.10,2013-06-22 10:22:00,
2013-06-22 06:37:00,58.2,58.0,30.16,SSE,156,0.0,1.0,98,0.00,,,0.00,weatherlink.com 1.10,2013-06-22 10:37:00,
2013-06-22 06:52:00,59.1,59.0,30.16,WSW,255,0.0,2.0,99,0.00,,,0.00,weatherlink.com 1.10,2013-06-22 10:52:00,
2013-06-22 07:07:00,60.3,60.0,30.16,WNW,291,0.0,5.0,99,0.00,,,0.00,weatherlink.com 1.10,2013-06-22 11:07:00,
2013-06-22 07:22:00,61.3,61.0,30.15,North,360,0.0,2.0,98,0.00,,,0.00,weatherlink.com 1.10,2013-06-22 11:22:00,
2013-06-22 07:37:00,62.3,61.0,30.15,SW,233,1.0,4.0,95,0.00,,,0.00,weatherlink.com 1.10,2013-06-22 11:37:00,
2013-06-22 07:52:00,63.5,61.0,30.16,WNW,290,0.0,4.0,92,0.00,,,0.00,weatherlink.com 1.10,2013-06-22 11:52:00,
2013-06-22 08:08:00,65.2,62.0,30.16,NW,308,2.0,4.0,89,0.00,,,0.00,weatherlink.com 1.10,2013-06-22 12:08:00,
2013-06-22 08:23:00,67.5,63.0,30.15,NNE,19,0.0,3.0,86,0.00,,,0.00,weatherlink.com 1.10,2013-06-22 12:23:00,
2013-06-22 08:38:00,70.1,64.0,30.16,West,272,5.0,8.0,80,0.00,,,0.00,weatherlink.com 1.10,2013-06-22 12:38:00,
2013-06-22 08:53:00,71.8,64.0,30.15,WSW,251,0.0,7.0,75,0.00,,,0.00,weatherlink.com 1.10,2013-06-22 12:53:00,
2013-06-22 09:08:00,73.2,64.0,30.15,ESE,116,3.0,6.0,73,0.00,,,0.00,weatherlink.com 1.10,2013-06-22 13:08:00,
2013-06-22 09:23:00,74.2,64.0,30.16,NW,310,3.0,5.0,71,0.00,,,0.00,weatherlink.com 1.10,2013-06-22 13:23:00,
2013-06-22 09:38:00,74.8,64.0,30.16,WNW,298,1.0,5.0,69,0.00,,,0.00,weatherlink.com 1.10,2013-06-22 13:38:00,
2013-06-22 09:53:00,75.4,64.0,30.17,WNW,285,4.0,5.0,68,0.00,,,0.00,weatherlink.com 1.10,2013-06-22 13:53:00,
2013-06-22 10:08:00,76.2,64.0,30.18,NW,323,2.0,3.0,65,0.00,,,0.00,weatherlink.com 1.10,2013-06-22 14:08:00,
2013-06-22 10:23:00,77.0,64.0,30.18,NW,325,3.0,4.0,65,0.00,,,0.00,weatherlink.com 1.10,2013-06-22 14:23:00,
2013-06-22 10:38:00,77.8,64.0,30.17,SW,229,3.0,6.0,63,0.00,,,0.00,weatherlink.com 1.10,2013-06-22 14:38:00,
2013-06-22 10:53:00,79.0,64.0,30.18,NW,310,1.0,10.0,61,0.00,,,0.00,weatherlink.com 1.10,2013-06-22 14:53:00,
2013-06-22 11:08:00,79.6,65.0,30.18,WNW,289,3.0,8.0,62,0.00,,,0.00,weatherlink.com 1.10,2013-06-22 15:08:00,
2013-06-22 11:23:00,80.0,65.0,30.18,SSE,165,0.0,3.0,61,0.00,,,0.00,weatherlink.com 1.10,2013-06-22 15:23:00,
2013-06-22 11:38:00,80.5,65.0,30.18,ENE,71,1.0,5.0,60,0.00,,,0.00,weatherlink.com 1.10,2013-06-22 15:38:00,
2013-06-22 11:53:00,81.1,67.0,30.18,SW,220,1.0,6.0,62,0.00,,,0.00,weatherlink.com 1.10,2013-06-22 15:53:00,
2013-06-22 12:08:00,81.7,66.0,30.18,SW,235,4.0,7.0,60,0.00,,,0.00,weatherlink.com 1.10,2013-06-22 16:08:00,
2013-06-22 12:23:00,81.9,68.0,30.18,West,269,3.0,5.0,63,0.00,,,0.00,weatherlink.com 1.10,2013-06-22 16:23:00,
2013-06-22 12:38:00,82.1,66.0,30.17,NW,324,0.0,6.0,59,0.00,,,0.00,weatherlink.com 1.10,2013-06-22 16:38:00,
2013-06-22 12:53:00,82.5,69.0,30.16,SSE,165,2.0,9.0,63,0.00,,,0.00,weatherlink.com 1.10,2013-06-22 16:53:00,
2013-06-22 13:08:00,83.1,68.0,30.16,ESE,104,0.0,6.0,61,0.00,,,0.00,weatherlink.com 1.10,2013-06-22 17:08:00,
2013-06-22 13:24:00,84.0,68.0,30.15,NE,42,1.0,9.0,58,0.00,,,0.00,weatherlink.com 1.10,2013-06-22 17:24:00,
2013-06-22 13:39:00,84.5,67.0,30.15,ESE,114,6.0,8.0,56,0.00,,,0.00,weatherlink.com 1.10,2013-06-22 17:39:00,
2013-06-22 13:54:00,84.3,68.0,30.15,SE,141,0.0,9.0,58,0.00,,,0.00,weatherlink.com 1.10,2013-06-22 17:54:00,
2013-06-22 14:09:00,84.8,68.0,30.15,ESE,109,2.0,6.0,58,0.00,,,0.00,weatherlink.com 1.10,2013-06-22 18:09:00,
2013-06-22 14:24:00,84.9,68.0,30.14,SE,143,1.0,8.0,58,0.00,,,0.00,weatherlink.com 1.10,2013-06-22 18:24:00,
2013-06-22 14:39:00,85.0,68.0,30.14,WNW,285,2.0,7.0,56,0.00,,,0.00,weatherlink.com 1.10,2013-06-22 18:39:00,
2013-06-22 14:54:00,84.4,69.0,30.14,ESE,119,2.0,10.0,60,0.00,,,0.00,weatherlink.com 1.10,2013-06-22 18:54:00,
2013-06-22 15:09:00,85.5,68.0,30.12,ESE,105,5.0,7.0,56,0.00,,,0.00,weatherlink.com 1.10,2013-06-22 19:09:00,
2013-06-22 15:24:00,86.2,66.0,30.11,SSE,153,1.0,9.0,52,0.00,,,0.00,weatherlink.com 1.10,2013-06-22 19:24:00,
2013-06-22 15:39:00,86.6,66.0,30.11,SE,139,4.0,8.0,51,0.00,,,0.00,weatherlink.com 1.10,2013-06-22 19:39:00,
2013-06-22 15:54:00,86.1,68.0,30.10,SSE,153,5.0,10.0,55,0.00,,,0.00,weatherlink.com 1.10,2013-06-22 19:54:00,
2013-06-22 16:09:00,85.5,67.0,30.09,SSE,149,1.0,9.0,55,0.00,,,0.00,weatherlink.com 1.10,2013-06-22 20:09:00,
2013-06-22 16:24:00,86.6,67.0,30.09,South,170,1.0,6.0,53,0.00,,,0.00,weatherlink.com 1.10,2013-06-22 20:24:00,
2013-06-22 16:39:00,86.6,67.0,30.09,SSW,202,1.0,9.0,53,0.00,,,0.00,weatherlink.com 1.10,2013-06-22 20:39:00,
2013-06-22 16:54:00,85.7,68.0,30.09,ESE,106,3.0,6.0,56,0.00,,,0.00,weatherlink.com 1.10,2013-06-22 20:54:00,
2013-06-22 17:09:00,85.8,69.0,30.08,SE,139,5.0,9.0,57,0.00,,,0.00,weatherlink.com 1.10,2013-06-22 21:09:00,
2013-06-22 17:24:00,85.7,69.0,30.07,SSE,165,3.0,8.0,58,0.00,,,0.00,weatherlink.com 1.10,2013-06-22 21:24:00,
2013-06-22 17:39:00,85.6,70.0,30.07,SE,138,2.0,9.0,59,0.00,,,0.00,weatherlink.com 1.10,2013-06-22 21:39:00,
2013-06-22 17:54:00,85.2,69.0,30.06,ESE,108,1.0,9.0,59,0.00,,,0.00,weatherlink.com 1.10,2013-06-22 21:54:00,
2013-06-22 18:09:00,84.9,69.0,30.05,ESE,117,3.0,9.0,59,0.00,,,0.00,weatherlink.com 1.10,2013-06-22 22:09:00,
2013-06-22 18:24:00,84.9,69.0,30.05,SE,131,4.0,8.0,59,0.00,,,0.00,weatherlink.com 1.10,2013-06-22 22:24:00,
2013-06-22 18:39:00,84.5,69.0,30.05,SE,134,4.0,9.0,60,0.00,,,0.00,weatherlink.com 1.10,2013-06-22 22:39:00,
2013-06-22 18:54:00,84.0,69.0,30.05,ESE,113,0.0,7.0,61,0.00,,,0.00,weatherlink.com 1.10,2013-06-22 22:54:00,
2013-06-22 19:09:00,83.8,69.0,30.05,ESE,112,2.0,6.0,62,0.00,,,0.00,weatherlink.com 1.10,2013-06-22 23:09:00,
2013-06-22 19:24:00,83.2,69.0,30.05,SSE,165,3.0,7.0,63,0.00,,,0.00,weatherlink.com 1.10,2013-06-22 23:24:00,
2013-06-22 19:39:00,82.0,70.0,30.05,SE,142,3.0,5.0,66,0.00,,,0.00,weatherlink.com 1.10,2013-06-22 23:39:00,
2013-06-22 19:54:00,80.7,69.0,30.05,ESE,118,1.0,5.0,68,0.00,,,0.00,weatherlink.com 1.10,2013-06-22 23:54:00,
2013-06-22 20:09:00,79.5,69.0,30.06,ESE,117,1.0,3.0,70,0.00,,,0.00,weatherlink.com 1.10,2013-06-23 00:09:00,
2013-06-22 20:24:00,78.3,68.0,30.06,ESE,117,1.0,1.0,71,0.00,,,0.00,weatherlink.com 1.10,2013-06-23 00:24:00,
2013-06-22 20:39:00,76.9,68.0,30.07,ESE,111,0.0,4.0,74,0.00,,,0.00,weatherlink.com 1.10,2013-06-23 00:39:00,
2013-06-22 20:54:00,75.7,68.0,30.07,ESE,111,0.0,0.0,76,0.00,,,0.00,weatherlink.com 1.10,2013-06-23 00:54:00,
2013-06-22 21:09:00,74.3,67.0,30.07,ESE,111,0.0,0.0,79,0.00,,,0.00,weatherlink.com 1.10,2013-06-23 01:09:00,
2013-06-22 21:24:00,72.9,67.0,30.08,ESE,111,0.0,0.0,82,0.00,,,0.00,weatherlink.com 1.10,2013-06-23 01:24:00,
2013-06-22 21:39:00,71.9,67.0,30.09,SSE,151,1.0,3.0,84,0.00,,,0.00,weatherlink.com 1.10,2013-06-23 01:39:00,
2013-06-22 21:55:00,72.1,67.0,30.09,SSE,155,4.0,6.0,84,0.00,,,0.00,weatherlink.com 1.10,2013-06-23 01:55:00,
2013-06-22 22:10:00,73.7,68.0,30.09,WSW,254,6.0,8.0,82,0.00,,,0.00,weatherlink.com 1.10,2013-06-23 02:10:00,
2013-06-22 22:25:00,74.7,68.0,30.09,South,175,2.0,8.0,80,0.00,,,0.00,weatherlink.com 1.10,2013-06-23 02:25:00,
2013-06-22 22:40:00,74.6,68.0,30.09,SE,139,0.0,9.0,79,0.00,,,0.00,weatherlink.com 1.10,2013-06-23 02:40:00,
2013-06-22 22:55:00,74.0,68.0,30.09,ESE,123,1.0,8.0,80,0.00,,,0.00,weatherlink.com 1.10,2013-06-23 02:55:00,
2013-06-22 23:10:00,73.5,68.0,30.10,East,89,1.0,8.0,82,0.00,,,0.00,weatherlink.com 1.10,2013-06-23 03:10:00,
2013-06-22 23:25:00,72.8,68.0,30.10,ESE,121,0.0,5.0,84,0.00,,,0.00,weatherlink.com 1.10,2013-06-23 03:25:00,
2013-06-22 23:40:00,72.4,68.0,30.09,SSE,150,1.0,7.0,85,0.00,,,0.00,weatherlink.com 1.10,2013-06-23 03:40:00,
2013-06-22 23:55:00,72.2,68.0,30.09,SE,138,1.0,7.0,85,0.00,,,0.00,weatherlink.com 1.10,2013-06-23 03:55:00,